Time;durP1;ratioP1;P1;durP2;ratioP2;P2;SDS_P1;SDS_P2;PMS_P1;PMS_P2;Temp;Humidity;BMP_temperature;BMP_pressure;BME280_temperature;BME280_humidity;BME280_pressure;Samples;Min_cycle;Max_cycle;Signal;HPM_P1;HPM_P2
2023/06/21 00:02:20;;;;;;;4.65;2.13;;;;;;;;;;5074593;28;20174;-59
2023/06/21 00:04:46;;;;;;;4.93;2.70;;;;;;;;;;5074500;28;20120;-59
2023/06/21 00:07:12;;;;;;;3.15;2.10;;;;;;;;;;5076239;28;20045;-59
2023/06/21 00:09:39;;;;;;;3.83;2.05;;;;;;;;;;5075722;27;20056;-59
2023/06/21 00:12:05;;;;;;;2.70;1.85;;;;;;;;;;5076858;28;20037;-60
2023/06/21 00:14:32;;;;;;;4.32;2.28;;;;;;;;;;5076418;28;20511;-59
2023/06/21 00:16:58;;;;;;;5.22;1.83;;;;;;;;;;5076727;28;20044;-59
2023/06/21 00:19:24;;;;;;;4.40;2.22;;;;;;;;;;5076216;28;20045;-59
2023/06/21 00:21:50;;;;;;;2.85;2.10;;;;;;;;;;5075190;28;20045;-59
2023/06/21 00:24:16;;;;;;;4.25;2.50;;;;;;;;;;5075258;28;20080;-59
2023/06/21 00:26:42;;;;;;;2.90;1.73;;;;;;;;;;5075947;28;21383;-59
2023/06/21 00:29:08;;;;;;;3.50;1.80;;;;;;;;;;5072977;28;20048;-59
2023/06/21 00:31:34;;;;;;;4.32;2.22;;;;;;;;;;5075992;28;20040;-59
2023/06/21 00:34:00;;;;;;;2.97;1.60;;;;;;;;;;5076352;28;20435;-59
2023/06/21 00:36:27;;;;;;;3.58;1.90;;;;;;;;;;5076141;28;20048;-60
2023/06/21 00:38:53;;;;;;;4.47;2.88;;;;;;;;;;5076779;28;20193;-59
2023/06/21 00:41:19;;;;;;;5.55;2.17;;;;;;;;;;5077202;27;20072;-59
2023/06/21 00:43:45;;;;;;;4.00;2.28;;;;;;;;;;5074958;28;20041;-60
2023/06/21 00:46:11;;;;;;;4.30;2.05;;;;;;;;;;5076489;28;20692;-59
2023/06/21 00:48:37;;;;;;;4.68;2.50;;;;;;;;;;5077406;28;20367;-59
2023/06/21 00:51:03;;;;;;;5.85;2.13;;;;;;;;;;5076526;28;20036;-59
2023/06/21 00:53:31;;;;;;;3.53;2.42;;;;;;;;;;5076129;28;20056;-59
2023/06/21 00:55:57;;;;;;;7.38;1.92;;;;;;;;;;5076370;28;20051;-59
2023/06/21 00:58:23;;;;;;;4.30;2.50;;;;;;;;;;5075437;28;20048;-59
2023/06/21 01:00:50;;;;;;;3.13;1.85;;;;;;;;;;5075876;28;20079;-59
2023/06/21 01:03:20;;;;;;;5.85;2.55;;;;;;;;;;5075319;28;20068;-59
2023/06/21 01:05:53;;;;;;;4.18;2.25;;;;;;;;;;5076880;28;20083;-59
2023/06/21 01:08:30;;;;;;;4.00;2.58;;;;;;;;;;5078762;28;20043;-59
2023/06/21 01:11:09;;;;;;;4.28;2.55;;;;;;;;;;5078088;28;20052;-59
2023/06/21 01:13:46;;;;;;;4.75;2.30;;;;;;;;;;5078894;28;20040;-59
2023/06/21 01:16:16;;;;;;;4.40;2.03;;;;;;;;;;5077316;28;20127;-59
2023/06/21 01:18:46;;;;;;;4.55;2.33;;;;;;;;;;5077537;28;20045;-59
2023/06/21 01:21:18;;;;;;;5.95;2.50;;;;;;;;;;5078661;28;20527;-59
2023/06/21 01:23:44;;;;;;;;;;;;;;;;;;5078939;28;20056;-59
2023/06/21 01:26:19;;;;;;;6.85;2.70;;;;;;;;;;5078512;28;20423;-59
2023/06/21 01:28:54;;;;;;;6.22;2.25;;;;;;;;;;5078510;28;20536;-59
2023/06/21 01:31:23;;;;;;;5.00;2.58;;;;;;;;;;5079093;28;20064;-59
2023/06/21 01:33:49;;;;;;;5.80;3.53;;;;;;;;;;5079236;28;20041;-59
2023/06/21 01:36:15;;;;;;;4.38;2.47;;;;;;;;;;5094601;27;20118;-59
2023/06/21 01:38:44;;;;;;;4.45;2.67;;;;;;;;;;5075166;28;20529;-59
2023/06/21 01:41:12;;;;;;;4.30;2.70;;;;;;;;;;5078845;28;20060;-59
2023/06/21 01:43:38;;;;;;;6.32;2.97;;;;;;;;;;5078026;28;20102;-59
2023/06/21 01:46:06;;;;;;;4.30;3.05;;;;;;;;;;5079714;28;20050;-59
2023/06/21 01:48:34;;;;;;;5.13;2.88;;;;;;;;;;5079282;28;20090;-60
2023/06/21 01:51:03;;;;;;;5.22;2.88;;;;;;;;;;5078904;28;20052;-59
2023/06/21 01:53:30;;;;;;;7.32;4.15;;;;;;;;;;5078332;28;20036;-60
2023/06/21 01:55:56;;;;;;;5.40;3.00;;;;;;;;;;5079506;28;20044;-59
2023/06/21 01:58:22;;;;;;;5.90;3.30;;;;;;;;;;5077749;28;20052;-59
2023/06/21 02:00:49;;;;;;;4.32;3.03;;;;;;;;;;5094363;27;20037;-59
2023/06/21 02:03:16;;;;;;;9.32;2.92;;;;;;;;;;5076837;28;20044;-59
2023/06/21 02:05:43;;;;;;;6.85;2.75;;;;;;;;;;5079419;28;20055;-59
2023/06/21 02:08:15;;;;;;;5.63;3.38;;;;;;;;;;5077520;28;20091;-59
2023/06/21 02:10:42;;;;;;;11.10;3.20;;;;;;;;;;5077932;28;20047;-59
2023/06/21 02:13:08;;;;;;;4.75;3.05;;;;;;;;;;5078198;28;20915;-59
2023/06/21 02:15:34;;;;;;;5.32;2.95;;;;;;;;;;5078584;28;20903;-59
2023/06/21 02:18:01;;;;;;;4.07;3.08;;;;;;;;;;5077577;28;20095;-59
2023/06/21 02:20:29;;;;;;;7.05;3.55;;;;;;;;;;5079072;27;20590;-59
2023/06/21 02:22:55;;;;;;;4.50;2.58;;;;;;;;;;5094435;27;20097;-59
2023/06/21 02:25:24;;;;;;;8.38;2.90;;;;;;;;;;5077308;28;20064;-59
2023/06/21 02:27:50;;;;;;;5.35;2.42;;;;;;;;;;5078379;27;20051;-59
2023/06/21 02:30:16;;;;;;;5.78;3.47;;;;;;;;;;5077956;27;20079;-59
2023/06/21 02:32:42;;;;;;;6.40;3.13;;;;;;;;;;5078965;28;20044;-59
2023/06/21 02:35:09;;;;;;;5.05;3.10;;;;;;;;;;5078432;28;20037;-59
2023/06/21 02:37:36;;;;;;;6.43;3.22;;;;;;;;;;5077361;28;20040;-59
2023/06/21 02:40:11;;;;;;;4.53;2.53;;;;;;;;;;5092923;27;20960;-59
2023/06/21 02:42:37;;;;;;;10.50;3.03;;;;;;;;;;5078614;28;20094;-59
2023/06/21 02:45:03;;;;;;;5.82;2.63;;;;;;;;;;5092373;27;20053;-59
2023/06/21 02:47:29;;;;;;;3.70;2.60;;;;;;;;;;5075034;28;20528;-59
2023/06/21 02:49:56;;;;;;;5.03;3.15;;;;;;;;;;5077592;28;20123;-59
2023/06/21 02:52:22;;;;;;;5.47;2.90;;;;;;;;;;5078140;28;20041;-59
2023/06/21 02:54:48;;;;;;;10.02;2.83;;;;;;;;;;5075108;28;20036;-59
2023/06/21 02:57:14;;;;;;;3.75;2.50;;;;;;;;;;5078003;28;20051;-59
2023/06/21 02:59:40;;;;;;;4.53;2.72;;;;;;;;;;5091046;27;20036;-59
2023/06/21 03:02:06;;;;;;;6.78;2.90;;;;;;;;;;5078328;28;20037;-59
2023/06/21 03:04:32;;;;;;;8.10;3.58;;;;;;;;;;5077202;28;20051;-59
2023/06/21 03:07:01;;;;;;;9.68;2.75;;;;;;;;;;5093690;27;20524;-59
2023/06/21 03:09:27;;;;;;;5.10;2.90;;;;;;;;;;5076361;28;20045;-59
2023/06/21 03:11:53;;;;;;;4.80;2.78;;;;;;;;;;5077436;28;20091;-59
2023/06/21 03:14:19;;;;;;;5.80;2.90;;;;;;;;;;5076830;28;20033;-59
2023/06/21 03:16:45;;;;;;;6.43;2.83;;;;;;;;;;5077024;28;20105;-59
2023/06/21 03:19:12;;;;;;;6.40;3.00;;;;;;;;;;5076041;28;20069;-59
2023/06/21 03:21:38;;;;;;;5.68;3.13;;;;;;;;;;5076601;28;20032;-59
2023/06/21 03:24:04;;;;;;;6.55;3.67;;;;;;;;;;5076162;28;20056;-59
2023/06/21 03:26:32;;;;;;;6.15;2.78;;;;;;;;;;5076043;28;20050;-59
2023/06/21 03:29:00;;;;;;;8.52;3.45;;;;;;;;;;5076877;28;20137;-59
2023/06/21 03:31:26;;;;;;;8.57;2.88;;;;;;;;;;5076885;28;20047;-59
2023/06/21 03:33:52;;;;;;;5.50;3.42;;;;;;;;;;5077107;28;20052;-59
2023/06/21 03:36:18;;;;;;;5.68;2.65;;;;;;;;;;5076823;28;20930;-59
2023/06/21 03:38:44;;;;;;;5.18;2.80;;;;;;;;;;5076659;28;20048;-59
2023/06/21 03:41:10;;;;;;;4.68;2.97;;;;;;;;;;5076478;28;20609;-59
2023/06/21 03:43:36;;;;;;;4.05;2.50;;;;;;;;;;5076554;28;20045;-59
2023/06/21 03:46:02;;;;;;;6.28;2.50;;;;;;;;;;5090910;27;20051;-60
2023/06/21 03:48:28;;;;;;;6.20;3.30;;;;;;;;;;5076771;28;20036;-59
2023/06/21 03:50:55;;;;;;;5.20;3.20;;;;;;;;;;5077705;28;20852;-59
2023/06/21 03:53:21;;;;;;;5.97;2.78;;;;;;;;;;5077510;28;20083;-59
2023/06/21 03:55:47;;;;;;;5.32;2.95;;;;;;;;;;5076342;28;20826;-59
2023/06/21 03:58:13;;;;;;;6.70;3.63;;;;;;;;;;5076367;28;20067;-59
2023/06/21 04:00:39;;;;;;;9.23;3.42;;;;;;;;;;5076488;28;20050;-58
2023/06/21 04:03:05;;;;;;;7.47;2.67;;;;;;;;;;5076839;28;20524;-59
2023/06/21 04:05:31;;;;;;;8.30;3.78;;;;;;;;;;5077964;28;20048;-59
2023/06/21 04:07:58;;;;;;;6.03;3.15;;;;;;;;;;5076875;28;20041;-59
2023/06/21 04:10:25;;;;;;;8.50;4.22;;;;;;;;;;5074418;27;20036;-59
2023/06/21 04:12:51;;;;;;;5.72;3.47;;;;;;;;;;5077023;27;20898;-59
2023/06/21 04:15:17;;;;;;;5.63;2.90;;;;;;;;;;5076901;28;20400;-59
2023/06/21 04:17:43;;;;;;;8.57;3.88;;;;;;;;;;5091123;27;20044;-59
2023/06/21 04:20:14;;;;;;;10.55;3.75;;;;;;;;;;5077127;28;20040;-59
2023/06/21 04:22:41;;;;;;;8.13;4.05;;;;;;;;;;5076503;28;20056;-59
2023/06/21 04:25:08;;;;;;;4.32;3.08;;;;;;;;;;5075292;28;20061;-59
2023/06/21 04:27:34;;;;;;;5.75;3.33;;;;;;;;;;5076450;28;21319;-59
2023/06/21 04:30:00;;;;;;;7.00;2.92;;;;;;;;;;5076155;28;20041;-59
2023/06/21 04:32:32;;;;;;;7.63;3.03;;;;;;;;;;5076449;28;20154;-59
2023/06/21 04:35:01;;;;;;;9.10;3.53;;;;;;;;;;5077057;28;20037;-60
2023/06/21 04:37:28;;;;;;;10.02;3.50;;;;;;;;;;5075950;28;20488;-59
2023/06/21 04:39:55;;;;;;;8.02;3.13;;;;;;;;;;5077136;28;20049;-59
2023/06/21 04:42:21;;;;;;;10.10;4.05;;;;;;;;;;5077029;28;20037;-59
2023/06/21 04:44:51;;;;;;;5.97;4.07;;;;;;;;;;5080259;28;20601;-59
2023/06/21 04:47:17;;;;;;;13.07;5.03;;;;;;;;;;5080238;28;20048;-59
2023/06/21 04:49:43;;;;;;;6.50;3.95;;;;;;;;;;5095465;27;20037;-59
2023/06/21 04:52:10;;;;;;;11.43;4.38;;;;;;;;;;5080376;28;20620;-60
2023/06/21 04:54:37;;;;;;;9.27;3.97;;;;;;;;;;5080566;28;20051;-59
2023/06/21 04:57:07;;;;;;;6.75;3.65;;;;;;;;;;5078261;28;20040;-59
2023/06/21 04:59:33;;;;;;;5.75;3.15;;;;;;;;;;5079930;28;20040;-59
2023/06/21 05:01:59;;;;;;;10.98;4.15;;;;;;;;;;5070939;28;20040;-59
2023/06/21 05:04:25;;;;;;;13.00;4.22;;;;;;;;;;5078510;28;20051;-59
2023/06/21 05:06:51;;;;;;;7.25;3.47;;;;;;;;;;5078015;28;20048;-59
2023/06/21 05:09:17;;;;;;;7.32;4.00;;;;;;;;;;5078947;28;20064;-59
2023/06/21 05:11:43;;;;;;;10.82;4.45;;;;;;;;;;5077639;27;20539;-59
2023/06/21 05:14:10;;;;;;;11.27;4.00;;;;;;;;;;5079142;28;20559;-59
2023/06/21 05:16:36;;;;;;;11.25;4.55;;;;;;;;;;5079123;28;20050;-59
2023/06/21 05:19:02;;;;;;;10.77;4.40;;;;;;;;;;5079838;28;20032;-59
2023/06/21 05:21:28;;;;;;;10.93;5.30;;;;;;;;;;5075994;28;20091;-59
2023/06/21 05:23:54;;;;;;;9.32;4.03;;;;;;;;;;5078906;28;20446;-59
2023/06/21 05:26:20;;;;;;;17.88;4.80;;;;;;;;;;5077643;28;20047;-59
2023/06/21 05:28:46;;;;;;;8.90;4.18;;;;;;;;;;5094509;27;20041;-59
2023/06/21 05:31:12;;;;;;;9.00;5.20;;;;;;;;;;5078209;28;20147;-59
2023/06/21 05:33:38;;;;;;;9.52;4.18;;;;;;;;;;5071178;28;20172;-59
2023/06/21 05:36:04;;;;;;;14.63;5.55;;;;;;;;;;5078246;28;20566;-59
2023/06/21 05:38:30;;;;;;;14.05;4.63;;;;;;;;;;5078651;28;20040;-59
2023/06/21 05:40:57;;;;;;;13.52;5.85;;;;;;;;;;5076881;28;20039;-59
2023/06/21 05:43:23;;;;;;;13.25;5.05;;;;;;;;;;5075554;28;20040;-59
2023/06/21 05:45:49;;;;;;;12.15;6.63;;;;;;;;;;5079139;28;20519;-59
2023/06/21 05:48:15;;;;;;;12.02;4.55;;;;;;;;;;5079800;28;20162;-59
2023/06/21 05:50:41;;;;;;;13.45;5.25;;;;;;;;;;5080373;28;20378;-59
2023/06/21 05:53:07;;;;;;;12.40;5.78;;;;;;;;;;5079570;28;20052;-59
2023/06/21 05:55:33;;;;;;;15.13;5.20;;;;;;;;;;5077638;28;20486;-59
2023/06/21 05:58:00;;;;;;;22.58;7.07;;;;;;;;;;5079662;28;20068;-59
2023/06/21 06:00:26;;;;;;;8.70;5.63;;;;;;;;;;5077440;28;20041;-59
2023/06/21 06:02:52;;;;;;;14.02;5.85;;;;;;;;;;5077821;28;20048;-59
2023/06/21 06:05:18;;;;;;;18.98;5.30;;;;;;;;;;5078170;28;20044;-59
2023/06/21 06:07:44;;;;;;;15.65;5.75;;;;;;;;;;5078267;28;20594;-59
2023/06/21 06:10:10;;;;;;;14.55;6.13;;;;;;;;;;5093126;27;20045;-60
2023/06/21 06:12:36;;;;;;;20.30;6.97;;;;;;;;;;5078422;28;20052;-59
2023/06/21 06:15:02;;;;;;;14.27;6.22;;;;;;;;;;5078091;27;20047;-59
2023/06/21 06:17:28;;;;;;;13.63;6.43;;;;;;;;;;5078720;28;20052;-59
2023/06/21 06:19:54;;;;;;;12.88;6.20;;;;;;;;;;5078383;28;20128;-59
2023/06/21 06:22:20;;;;;;;12.07;6.10;;;;;;;;;;5078668;28;20052;-60
2023/06/21 06:24:48;;;;;;;12.07;6.28;;;;;;;;;;5077716;28;20402;-59
2023/06/21 06:27:14;;;;;;;11.55;6.63;;;;;;;;;;5076683;28;20127;-60
2023/06/21 06:29:40;;;;;;;9.00;5.70;;;;;;;;;;5078272;28;20479;-59
2023/06/21 06:32:06;;;;;;;12.18;6.70;;;;;;;;;;5077174;28;20087;-59
2023/06/21 06:34:33;;;;;;;14.63;6.53;;;;;;;;;;5077762;28;20417;-60
2023/06/21 06:36:59;;;;;;;11.35;7.45;;;;;;;;;;5077855;28;20041;-59
2023/06/21 06:39:25;;;;;;;14.43;5.93;;;;;;;;;;5078613;28;20071;-59
2023/06/21 06:41:51;;;;;;;8.93;6.60;;;;;;;;;;5076843;28;20410;-59
2023/06/21 06:44:17;;;;;;;12.13;7.68;;;;;;;;;;5078257;28;20200;-59
2023/06/21 06:46:43;;;;;;;17.00;8.07;;;;;;;;;;5076824;28;20135;-59
2023/06/21 06:49:09;;;;;;;14.82;7.90;;;;;;;;;;5077806;28;20968;-59
2023/06/21 06:51:35;;;;;;;12.20;6.88;;;;;;;;;;5077598;28;20524;-59
2023/06/21 06:54:02;;;;;;;19.70;8.40;;;;;;;;;;5076286;28;20173;-59
2023/06/21 06:56:28;;;;;;;13.68;9.00;;;;;;;;;;5077362;28;20155;-59
2023/06/21 06:58:54;;;;;;;13.55;7.40;;;;;;;;;;5092583;27;20032;-59
2023/06/21 07:01:22;;;;;;;13.10;6.97;;;;;;;;;;5077937;28;20075;-59
2023/06/21 07:03:48;;;;;;;10.70;7.32;;;;;;;;;;5076987;28;20511;-59
2023/06/21 07:06:14;;;;;;;11.45;6.78;;;;;;;;;;5077642;28;20540;-59
2023/06/21 07:08:44;;;;;;;11.98;7.38;;;;;;;;;;5092759;27;20048;-59
2023/06/21 07:11:10;;;;;;;13.63;6.68;;;;;;;;;;5076620;28;20078;-59
2023/06/21 07:13:36;;;;;;;11.13;5.82;;;;;;;;;;5076813;28;20041;-59
2023/06/21 07:16:02;;;;;;;12.85;6.93;;;;;;;;;;5077350;28;20073;-59
2023/06/21 07:18:28;;;;;;;10.00;6.45;;;;;;;;;;5093161;27;20581;-60
2023/06/21 07:20:54;;;;;;;10.60;6.10;;;;;;;;;;5078328;28;20039;-59
2023/06/21 07:23:20;;;;;;;6.70;5.55;;;;;;;;;;5077861;28;20052;-59
2023/06/21 07:25:47;;;;;;;10.13;5.38;;;;;;;;;;5077442;28;21038;-59
2023/06/21 07:28:13;;;;;;;11.57;5.68;;;;;;;;;;5076978;28;20653;-59
2023/06/21 07:30:42;;;;;;;9.10;6.90;;;;;;;;;;5076517;28;20048;-59
2023/06/21 07:33:08;;;;;;;9.45;5.85;;;;;;;;;;5091205;27;20115;-60
2023/06/21 07:35:34;;;;;;;13.05;5.13;;;;;;;;;;5076778;28;20044;-59
2023/06/21 07:38:00;;;;;;;14.88;4.80;;;;;;;;;;5077239;28;20040;-59
2023/06/21 07:40:26;;;;;;;12.80;4.82;;;;;;;;;;5075947;28;20731;-59
2023/06/21 07:42:52;;;;;;;12.75;5.72;;;;;;;;;;5078171;28;20662;-59
2023/06/21 07:45:18;;;;;;;12.88;5.38;;;;;;;;;;5076465;28;20041;-59
2023/06/21 07:47:45;;;;;;;8.25;4.68;;;;;;;;;;5077643;28;20040;-59
2023/06/21 07:50:11;;;;;;;9.07;4.70;;;;;;;;;;5076606;28;20572;-60
2023/06/21 07:52:37;;;;;;;7.45;4.72;;;;;;;;;;5076336;28;20055;-59
2023/06/21 07:55:05;;;;;;;7.63;4.40;;;;;;;;;;5076101;28;20037;-59
2023/06/21 07:57:32;;;;;;;7.60;4.47;;;;;;;;;;5076360;28;20079;-60
2023/06/21 08:00:05;;;;;;;8.27;3.67;;;;;;;;;;5091505;27;20051;-59
2023/06/21 08:02:31;;;;;;;5.68;3.90;;;;;;;;;;5068349;28;20052;-59
2023/06/21 08:04:57;;;;;;;9.90;4.35;;;;;;;;;;5077107;28;20044;-58
2023/06/21 08:07:23;;;;;;;8.05;4.00;;;;;;;;;;5077416;28;20047;-59
2023/06/21 08:09:49;;;;;;;6.22;4.35;;;;;;;;;;5075710;28;20070;-59
2023/06/21 08:12:16;;;;;;;7.20;4.00;;;;;;;;;;5076833;28;20449;-60
2023/06/21 08:14:42;;;;;;;5.07;3.53;;;;;;;;;;5074392;28;20040;-59
2023/06/21 08:17:08;;;;;;;8.50;4.90;;;;;;;;;;5079162;28;20051;-59
2023/06/21 08:19:34;;;;;;;7.78;3.97;;;;;;;;;;5078343;28;20052;-60
2023/06/21 08:22:00;;;;;;;8.52;4.45;;;;;;;;;;5080115;28;20098;-59
2023/06/21 08:24:27;;;;;;;9.50;4.22;;;;;;;;;;5079260;28;20064;-59
2023/06/21 08:26:53;;;;;;;9.63;3.90;;;;;;;;;;5080339;28;20062;-60
2023/06/21 08:29:19;;;;;;;8.13;4.35;;;;;;;;;;5079960;28;20052;-59
2023/06/21 08:31:45;;;;;;;8.95;5.00;;;;;;;;;;5077794;28;20044;-59
2023/06/21 08:34:11;;;;;;;5.38;3.17;;;;;;;;;;5080001;28;20047;-59
2023/06/21 08:36:38;;;;;;;5.65;3.75;;;;;;;;;;5080394;28;20044;-59
2023/06/21 08:39:05;;;;;;;6.50;3.55;;;;;;;;;;5079427;28;20045;-59
2023/06/21 08:41:31;;;;;;;7.43;3.60;;;;;;;;;;5078531;28;20501;-59
2023/06/21 08:43:57;;;;;;;12.25;3.70;;;;;;;;;;5079365;28;20100;-59
2023/06/21 08:46:27;;;;;;;5.57;3.65;;;;;;;;;;5078752;28;20532;-60
2023/06/21 08:48:57;;;;;;;6.18;3.08;;;;;;;;;;5079504;28;20072;-60
2023/06/21 08:51:24;;;;;;;6.60;3.28;;;;;;;;;;5080117;27;20112;-59
2023/06/21 08:53:52;;;;;;;6.88;3.00;;;;;;;;;;5079867;28;20037;-60
2023/06/21 08:56:23;;;;;;;9.98;3.78;;;;;;;;;;5078838;28;20067;-59
2023/06/21 08:58:51;;;;;;;5.35;2.92;;;;;;;;;;5079855;28;20086;-60
2023/06/21 09:01:19;;;;;;;5.82;3.40;;;;;;;;;;5079132;28;20036;-59
2023/06/21 09:03:46;;;;;;;5.97;2.95;;;;;;;;;;5094890;27;20047;-60
2023/06/21 09:06:14;;;;;;;5.97;3.03;;;;;;;;;;5079307;28;20072;-59
2023/06/21 09:08:41;;;;;;;5.13;3.47;;;;;;;;;;5078414;28;20574;-60
2023/06/21 09:11:11;;;;;;;4.28;3.05;;;;;;;;;;5078078;28;20045;-59
2023/06/21 09:13:37;;;;;;;8.55;3.63;;;;;;;;;;5077795;28;20045;-60
2023/06/21 09:16:03;;;;;;;5.88;3.08;;;;;;;;;;5079046;28;20617;-59
2023/06/21 09:18:35;;;;;;;8.32;3.17;;;;;;;;;;5078817;27;20048;-59
2023/06/21 09:21:02;;;;;;;5.55;2.53;;;;;;;;;;5078678;28;20562;-59
2023/06/21 09:23:28;;;;;;;5.20;2.70;;;;;;;;;;5093475;27;20518;-59
2023/06/21 09:25:55;;;;;;;6.32;2.85;;;;;;;;;;5070713;28;20677;-59
2023/06/21 09:28:21;;;;;;;3.95;2.65;;;;;;;;;;5078204;28;20087;-60
2023/06/21 09:30:48;;;;;;;4.50;2.20;;;;;;;;;;5079271;28;20536;-59
2023/06/21 09:33:14;;;;;;;4.18;2.15;;;;;;;;;;5078918;28;20032;-60
2023/06/21 09:35:40;;;;;;;4.82;2.92;;;;;;;;;;5078851;28;20102;-59
2023/06/21 09:38:26;;;;;;;6.72;2.53;;;;;;;;;;5078798;28;20049;-59
2023/06/21 09:40:52;;;;;;;4.70;3.10;;;;;;;;;;5077246;28;20044;-60
2023/06/21 09:43:20;;;;;;;4.03;2.92;;;;;;;;;;5079545;28;20044;-59
2023/06/21 09:45:59;;;;;;;7.00;3.08;;;;;;;;;;5078003;28;20553;-60
2023/06/21 09:48:25;;;;;;;7.85;2.95;;;;;;;;;;5078063;28;20140;-59
2023/06/21 09:50:51;;;;;;;6.53;2.65;;;;;;;;;;5078608;28;20114;-60
2023/06/21 09:53:26;;;;;;;6.15;2.40;;;;;;;;;;5078212;28;20067;-59
2023/06/21 09:55:52;;;;;;;6.47;2.58;;;;;;;;;;5069776;28;20048;-59
2023/06/21 09:58:18;;;;;;;6.30;3.22;;;;;;;;;;5078418;27;20048;-59
2023/06/21 10:00:44;;;;;;;8.88;3.35;;;;;;;;;;5078765;28;20040;-59
2023/06/21 10:03:11;;;;;;;5.90;2.88;;;;;;;;;;5077971;28;20051;-59
2023/06/21 10:05:52;;;;;;;6.72;2.65;;;;;;;;;;5070827;28;20067;-60
2023/06/21 10:08:23;;;;;;;4.53;2.70;;;;;;;;;;5078577;28;20528;-60
2023/06/21 10:10:49;;;;;;;4.25;2.55;;;;;;;;;;5078565;28;20936;-60
2023/06/21 10:13:15;;;;;;;4.78;2.40;;;;;;;;;;5075671;28;20556;-59
2023/06/21 10:15:45;;;;;;;5.10;2.20;;;;;;;;;;5077558;28;20110;-60
2023/06/21 10:18:12;;;;;;;3.47;2.17;;;;;;;;;;5078308;28;20044;-60
2023/06/21 10:20:39;;;;;;;5.15;2.58;;;;;;;;;;5078270;28;20059;-60
2023/06/21 10:23:05;;;;;;;4.60;2.38;;;;;;;;;;5078181;28;20221;-60
2023/06/21 10:25:31;;;;;;;4.45;2.25;;;;;;;;;;5077776;28;20044;-60
2023/06/21 10:28:00;;;;;;;4.10;2.80;;;;;;;;;;5077802;28;20043;-59
2023/06/21 10:30:28;;;;;;;3.65;2.45;;;;;;;;;;5079326;28;20036;-59
2023/06/21 10:32:55;;;;;;;4.72;2.65;;;;;;;;;;5078474;28;20123;-60
2023/06/21 10:35:22;;;;;;;6.13;2.45;;;;;;;;;;5077486;28;20124;-59
2023/06/21 10:38:07;;;;;;;4.65;2.63;;;;;;;;;;5078743;28;20098;-59
2023/06/21 10:40:35;;;;;;;6.80;3.00;;;;;;;;;;5076805;28;20908;-59
2023/06/21 10:43:01;;;;;;;5.00;3.42;;;;;;;;;;5078508;28;20048;-59
2023/06/21 10:45:30;;;;;;;5.40;2.65;;;;;;;;;;5077798;28;20500;-59
2023/06/21 10:47:57;;;;;;;4.50;2.95;;;;;;;;;;5092943;27;20551;-60
2023/06/21 10:50:23;;;;;;;10.20;2.67;;;;;;;;;;5077840;28;20069;-59
2023/06/21 10:53:01;;;;;;;4.95;2.22;;;;;;;;;;5077516;28;20041;-59
2023/06/21 10:55:27;;;;;;;3.45;2.25;;;;;;;;;;5076636;28;20051;-59
2023/06/21 10:57:54;;;;;;;5.10;2.63;;;;;;;;;;5077674;28;20037;-60
2023/06/21 11:00:22;;;;;;;4.45;2.17;;;;;;;;;;5076469;28;20040;-60
2023/06/21 11:02:49;;;;;;;3.42;2.15;;;;;;;;;;5077490;28;20083;-60
2023/06/21 11:05:15;;;;;;;3.78;2.20;;;;;;;;;;5076922;28;20047;-60
2023/06/21 11:07:53;;;;;;;5.45;2.30;;;;;;;;;;5077728;28;20040;-59
2023/06/21 11:10:31;;;;;;;4.95;1.92;;;;;;;;;;5077204;28;20048;-59
2023/06/21 11:12:58;;;;;;;7.43;3.47;;;;;;;;;;5092067;27;20560;-59
2023/06/21 11:15:27;;;;;;;4.45;3.08;;;;;;;;;;5077950;28;20075;-59
2023/06/21 11:18:01;;;;;;;3.75;2.42;;;;;;;;;;5077050;28;20048;-59
2023/06/21 11:20:28;;;;;;;4.80;3.13;;;;;;;;;;5077379;28;20041;-59
2023/06/21 11:23:01;;;;;;;3.67;2.42;;;;;;;;;;5076846;28;20553;-60
2023/06/21 11:25:28;;;;;;;4.28;2.50;;;;;;;;;;5077151;28;20056;-60
2023/06/21 11:28:12;;;;;;;6.10;2.42;;;;;;;;;;5076451;27;20044;-59
2023/06/21 11:30:39;;;;;;;4.07;2.03;;;;;;;;;;5077801;28;20098;-59
2023/06/21 11:33:18;;;;;;;5.05;1.90;;;;;;;;;;5076226;28;20037;-59
2023/06/21 11:35:50;;;;;;;3.42;2.20;;;;;;;;;;5077148;28;20049;-60
2023/06/21 11:38:17;;;;;;;4.78;2.70;;;;;;;;;;5077698;28;20040;-60
2023/06/21 11:40:43;;;;;;;4.03;2.70;;;;;;;;;;5076196;28;20036;-59
2023/06/21 11:43:15;;;;;;;4.93;2.65;;;;;;;;;;5075844;28;20045;-60
2023/06/21 11:45:41;;;;;;;4.47;2.15;;;;;;;;;;5076601;28;20472;-60
2023/06/21 11:48:12;;;;;;;7.43;2.67;;;;;;;;;;5077040;28;20539;-59
2023/06/21 11:50:42;;;;;;;4.63;2.50;;;;;;;;;;5077180;28;20044;-60
2023/06/21 11:53:28;;;;;;;4.43;2.75;;;;;;;;;;5091878;27;20098;-60
2023/06/21 11:55:54;;;;;;;6.78;3.03;;;;;;;;;;5077208;28;20115;-60
2023/06/21 11:58:21;;;;;;;4.35;2.58;;;;;;;;;;5076220;28;20123;-59
2023/06/21 12:00:47;;;;;;;3.40;1.95;;;;;;;;;;5076348;28;20064;-60
2023/06/21 12:03:17;;;;;;;6.20;2.78;;;;;;;;;;5076298;28;20048;-60
2023/06/21 12:05:49;;;;;;;4.65;2.50;;;;;;;;;;5076459;28;20044;-60
2023/06/21 12:08:15;;;;;;;5.40;2.55;;;;;;;;;;5075818;28;20045;-60
2023/06/21 12:10:41;;;;;;;5.47;3.17;;;;;;;;;;5076276;28;20136;-60
2023/06/21 12:13:08;;;;;;;4.28;2.15;;;;;;;;;;5075216;28;20041;-59
2023/06/21 12:15:34;;;;;;;5.32;2.90;;;;;;;;;;5077496;28;20602;-60
2023/06/21 12:18:00;;;;;;;4.80;2.63;;;;;;;;;;5076542;28;20068;-59
2023/06/21 12:20:26;;;;;;;4.03;2.30;;;;;;;;;;5077292;28;20531;-60
2023/06/21 12:22:52;;;;;;;5.38;2.70;;;;;;;;;;5077195;28;20043;-60
2023/06/21 12:25:19;;;;;;;11.75;4.63;;;;;;;;;;5077056;28;20057;-59
2023/06/21 12:28:14;;;;;;;3.38;2.30;;;;;;;;;;5075822;28;20044;-60
2023/06/21 12:30:46;;;;;;;6.15;2.33;;;;;;;;;;5075610;28;20049;-60
2023/06/21 12:33:12;;;;;;;5.00;2.50;;;;;;;;;;5076443;28;20044;-60
2023/06/21 12:35:38;;;;;;;3.92;2.35;;;;;;;;;;5076314;28;20044;-60
2023/06/21 12:38:15;;;;;;;6.57;2.45;;;;;;;;;;5076788;28;20052;-60
2023/06/21 12:40:54;;;;;;;2.67;1.85;;;;;;;;;;5076426;28;20094;-59
2023/06/21 12:43:42;;;;;;;6.70;2.72;;;;;;;;;;5075100;28;20131;-59
2023/06/21 12:46:08;;;;;;;5.15;2.60;;;;;;;;;;5075322;28;20571;-60
2023/06/21 12:48:35;;;;;;;3.55;2.10;;;;;;;;;;5074512;28;20155;-60
2023/06/21 12:51:01;;;;;;;4.60;2.40;;;;;;;;;;5075205;28;20098;-60
2023/06/21 12:53:31;;;;;;;4.45;2.25;;;;;;;;;;5075535;28;20040;-61
2023/06/21 12:56:10;;;;;;;6.65;2.40;;;;;;;;;;5075733;28;20097;-60
2023/06/21 12:58:37;;;;;;;4.13;1.95;;;;;;;;;;5090111;27;20550;-60
2023/06/21 13:01:04;;;;;;;4.38;1.95;;;;;;;;;;5076217;28;20090;-60
2023/06/21 13:03:30;;;;;;;3.05;2.13;;;;;;;;;;5078115;28;20036;-60
2023/06/21 13:05:57;;;;;;;3.97;2.80;;;;;;;;;;5079571;28;20167;-60
2023/06/21 13:08:23;;;;;;;4.47;2.17;;;;;;;;;;5095087;27;20098;-60
2023/06/21 13:10:52;;;;;;;5.13;2.55;;;;;;;;;;5079487;28;20051;-60
2023/06/21 13:13:18;;;;;;;3.63;2.30;;;;;;;;;;5078803;28;20106;-59
2023/06/21 13:15:44;;;;;;;5.47;2.22;;;;;;;;;;5078865;28;20056;-60
2023/06/21 13:18:10;;;;;;;4.82;2.85;;;;;;;;;;5078667;28;20044;-60
2023/06/21 13:20:37;;;;;;;3.50;2.10;;;;;;;;;;5078694;28;20566;-60
2023/06/21 13:23:03;;;;;;;3.13;2.05;;;;;;;;;;5079356;28;20079;-59
2023/06/21 13:25:30;;;;;;;2.80;1.80;;;;;;;;;;5078097;28;20119;-60
2023/06/21 13:27:56;;;;;;;3.78;2.45;;;;;;;;;;5078625;27;20103;-60
2023/06/21 13:30:22;;;;;;;3.90;2.33;;;;;;;;;;5094321;27;20037;-60
2023/06/21 13:32:48;;;;;;;2.95;2.00;;;;;;;;;;5078758;28;20125;-60
2023/06/21 13:35:15;;;;;;;4.00;2.05;;;;;;;;;;5070317;28;20524;-60
2023/06/21 13:37:41;;;;;;;3.35;2.13;;;;;;;;;;5077962;28;20044;-60
2023/06/21 13:40:11;;;;;;;4.90;2.50;;;;;;;;;;5079350;28;20032;-60
2023/06/21 13:42:37;;;;;;;5.63;2.42;;;;;;;;;;5079110;28;20040;-60
2023/06/21 13:45:04;;;;;;;3.65;2.22;;;;;;;;;;5077207;28;20103;-61
2023/06/21 13:47:30;;;;;;;5.68;2.13;;;;;;;;;;5078369;28;20045;-60
2023/06/21 13:49:56;;;;;;;6.32;2.97;;;;;;;;;;5074912;28;20074;-60
2023/06/21 13:52:24;;;;;;;6.13;2.53;;;;;;;;;;5079013;28;20134;-60
2023/06/21 13:54:50;;;;;;;4.45;2.20;;;;;;;;;;5078643;28;20044;-60
2023/06/21 13:57:16;;;;;;;3.47;2.47;;;;;;;;;;5077367;28;20040;-60
2023/06/21 13:59:46;;;;;;;5.47;2.67;;;;;;;;;;5079442;28;20074;-60
2023/06/21 14:02:12;;;;;;;3.35;2.38;;;;;;;;;;5078499;28;20859;-60
2023/06/21 14:04:39;;;;;;;6.28;2.20;;;;;;;;;;5078657;28;20040;-60
2023/06/21 14:07:05;;;;;;;3.17;2.38;;;;;;;;;;5078497;28;20040;-60
2023/06/21 14:09:33;;;;;;;5.35;2.25;;;;;;;;;;5078349;28;20041;-61
2023/06/21 14:12:00;;;;;;;6.15;2.42;;;;;;;;;;5078681;28;20047;-60
2023/06/21 14:14:26;;;;;;;3.67;2.63;;;;;;;;;;5077798;28;20659;-60
2023/06/21 14:16:52;;;;;;;4.28;3.15;;;;;;;;;;5078712;28;20861;-60
2023/06/21 14:19:18;;;;;;;3.92;2.45;;;;;;;;;;5077893;28;20066;-60
2023/06/21 14:21:44;;;;;;;4.20;2.47;;;;;;;;;;5077976;28;20067;-60
2023/06/21 14:24:10;;;;;;;4.68;2.40;;;;;;;;;;5078135;28;20053;-59
2023/06/21 14:26:37;;;;;;;5.53;2.42;;;;;;;;;;5093342;27;20080;-60
2023/06/21 14:29:03;;;;;;;4.97;2.00;;;;;;;;;;5076810;28;20124;-61
2023/06/21 14:31:31;;;;;;;4.53;3.53;;;;;;;;;;5078616;28;20040;-60
2023/06/21 14:34:01;;;;;;;2.50;1.80;;;;;;;;;;5078819;28;20048;-61
2023/06/21 14:36:27;;;;;;;4.63;1.88;;;;;;;;;;5094102;27;20055;-60
2023/06/21 14:38:53;;;;;;;4.55;2.60;;;;;;;;;;5093631;27;20896;-60
2023/06/21 14:41:19;;;;;;;5.70;2.28;;;;;;;;;;5077561;28;20447;-60
2023/06/21 14:43:45;;;;;;;5.95;2.28;;;;;;;;;;5076739;28;20086;-60